sensor_id;sensor_type;location;lat;lon;timestamp;P1;durP1;ratioP1;P2;durP2;ratioP2
20283;SDS011;10301;50.832;4.080;2023-01-23T00:00:36;44.13;;;22.83;;
20283;SDS011;10301;50.832;4.080;2023-01-23T00:03:03;45.87;;;22.17;;
20283;SDS011;10301;50.832;4.080;2023-01-23T00:05:29;42.27;;;22.67;;
20283;SDS011;10301;50.832;4.080;2023-01-23T00:07:55;53.47;;;23.63;;
20283;SDS011;10301;50.832;4.080;2023-01-23T00:10:21;45.27;;;22.27;;
20283;SDS011;10301;50.832;4.080;2023-01-23T00:12:46;46.57;;;23.30;;
20283;SDS011;10301;50.832;4.080;2023-01-23T00:15:17;41.90;;;22.13;;
20283;SDS011;10301;50.832;4.080;2023-01-23T00:17:43;45.73;;;23.27;;
20283;SDS011;10301;50.832;4.080;2023-01-23T00:20:10;49.90;;;24.43;;
20283;SDS011;10301;50.832;4.080;2023-01-23T00:22:36;45.23;;;22.83;;
20283;SDS011;10301;50.832;4.080;2023-01-23T00:25:03;48.97;;;24.97;;
20283;SDS011;10301;50.832;4.080;2023-01-23T00:27:29;45.03;;;23.43;;
20283;SDS011;10301;50.832;4.080;2023-01-23T00:29:55;47.53;;;23.20;;
20283;SDS011;10301;50.832;4.080;2023-01-23T00:32:21;46.50;;;23.30;;
20283;SDS011;10301;50.832;4.080;2023-01-23T00:34:47;49.47;;;23.63;;
20283;SDS011;10301;50.832;4.080;2023-01-23T00:37:13;42.03;;;20.77;;
20283;SDS011;10301;50.832;4.080;2023-01-23T00:39:40;45.00;;;22.37;;
20283;SDS011;10301;50.832;4.080;2023-01-23T00:42:06;44.40;;;23.27;;
20283;SDS011;10301;50.832;4.080;2023-01-23T00:44:32;49.03;;;22.30;;
20283;SDS011;10301;50.832;4.080;2023-01-23T00:46:58;43.43;;;21.80;;
20283;SDS011;10301;50.832;4.080;2023-01-23T00:49:24;45.97;;;22.33;;
20283;SDS011;10301;50.832;4.080;2023-01-23T00:51:50;42.83;;;22.60;;
20283;SDS011;10301;50.832;4.080;2023-01-23T00:54:18;42.23;;;21.67;;
20283;SDS011;10301;50.832;4.080;2023-01-23T00:56:45;47.73;;;23.17;;
20283;SDS011;10301;50.832;4.080;2023-01-23T00:59:11;44.13;;;22.97;;
20283;SDS011;10301;50.832;4.080;2023-01-23T01:01:36;42.77;;;21.93;;
20283;SDS011;10301;50.832;4.080;2023-01-23T01:04:02;43.03;;;21.50;;
20283;SDS011;10301;50.832;4.080;2023-01-23T01:06:28;46.60;;;22.77;;
20283;SDS011;10301;50.832;4.080;2023-01-23T01:08:54;42.70;;;22.87;;
20283;SDS011;10301;50.832;4.080;2023-01-23T01:11:21;44.60;;;21.53;;
20283;SDS011;10301;50.832;4.080;2023-01-23T01:13:47;48.67;;;23.90;;
20283;SDS011;10301;50.832;4.080;2023-01-23T01:16:13;46.47;;;21.63;;
20283;SDS011;10301;50.832;4.080;2023-01-23T01:18:39;44.33;;;22.07;;
20283;SDS011;10301;50.832;4.080;2023-01-23T01:21:06;43.37;;;21.57;;
20283;SDS011;10301;50.832;4.080;2023-01-23T01:23:37;47.07;;;23.10;;
20283;SDS011;10301;50.832;4.080;2023-01-23T01:26:04;43.03;;;22.17;;
20283;SDS011;10301;50.832;4.080;2023-01-23T01:28:30;46.23;;;22.77;;
20283;SDS011;10301;50.832;4.080;2023-01-23T01:30:57;45.73;;;22.80;;
20283;SDS011;10301;50.832;4.080;2023-01-23T01:33:27;44.50;;;23.17;;
20283;SDS011;10301;50.832;4.080;2023-01-23T01:35:53;43.90;;;21.77;;
20283;SDS011;10301;50.832;4.080;2023-01-23T01:38:22;43.53;;;21.77;;
20283;SDS011;10301;50.832;4.080;2023-01-23T01:40:48;42.83;;;22.17;;
20283;SDS011;10301;50.832;4.080;2023-01-23T01:43:21;47.40;;;23.73;;
20283;SDS011;10301;50.832;4.080;2023-01-23T01:48:40;46.80;;;23.33;;
20283;SDS011;10301;50.832;4.080;2023-01-23T01:51:11;42.60;;;21.70;;
20283;SDS011;10301;50.832;4.080;2023-01-23T01:53:56;45.57;;;21.87;;
20283;SDS011;10301;50.832;4.080;2023-01-23T01:56:31;41.67;;;21.40;;
20283;SDS011;10301;50.832;4.080;2023-01-23T01:59:01;47.63;;;22.60;;
20283;SDS011;10301;50.832;4.080;2023-01-23T02:01:27;47.53;;;21.37;;
20283;SDS011;10301;50.832;4.080;2023-01-23T02:03:53;43.17;;;21.93;;
20283;SDS011;10301;50.832;4.080;2023-01-23T02:06:19;47.90;;;21.37;;
20283;SDS011;10301;50.832;4.080;2023-01-23T02:09:02;48.40;;;22.70;;
20283;SDS011;10301;50.832;4.080;2023-01-23T02:11:31;44.80;;;22.60;;
20283;SDS011;10301;50.832;4.080;2023-01-23T02:13:57;47.20;;;21.83;;
20283;SDS011;10301;50.832;4.080;2023-01-23T02:16:28;45.33;;;21.60;;
20283;SDS011;10301;50.832;4.080;2023-01-23T02:18:58;46.77;;;21.97;;
20283;SDS011;10301;50.832;4.080;2023-01-23T02:21:27;48.23;;;22.40;;
20283;SDS011;10301;50.832;4.080;2023-01-23T02:26:42;47.47;;;22.87;;
20283;SDS011;10301;50.832;4.080;2023-01-23T02:29:10;43.20;;;21.13;;
20283;SDS011;10301;50.832;4.080;2023-01-23T02:31:37;45.93;;;21.33;;
20283;SDS011;10301;50.832;4.080;2023-01-23T02:34:03;44.47;;;21.27;;
20283;SDS011;10301;50.832;4.080;2023-01-23T02:36:31;42.87;;;21.37;;
20283;SDS011;10301;50.832;4.080;2023-01-23T02:39:06;48.33;;;22.37;;
20283;SDS011;10301;50.832;4.080;2023-01-23T02:41:44;44.33;;;22.00;;
20283;SDS011;10301;50.832;4.080;2023-01-23T02:44:16;45.50;;;22.23;;
20283;SDS011;10301;50.832;4.080;2023-01-23T02:46:44;45.30;;;21.37;;
20283;SDS011;10301;50.832;4.080;2023-01-23T02:49:10;44.40;;;22.07;;
20283;SDS011;10301;50.832;4.080;2023-01-23T02:51:35;46.10;;;23.13;;
20283;SDS011;10301;50.832;4.080;2023-01-23T02:54:01;42.43;;;21.47;;
20283;SDS011;10301;50.832;4.080;2023-01-23T02:56:27;45.30;;;22.43;;
20283;SDS011;10301;50.832;4.080;2023-01-23T02:58:53;46.90;;;23.50;;
20283;SDS011;10301;50.832;4.080;2023-01-23T03:01:38;48.90;;;22.20;;
20283;SDS011;10301;50.832;4.080;2023-01-23T03:04:03;46.47;;;22.57;;
20283;SDS011;10301;50.832;4.080;2023-01-23T03:06:31;46.67;;;23.13;;
20283;SDS011;10301;50.832;4.080;2023-01-23T03:09:06;44.80;;;22.23;;
20283;SDS011;10301;50.832;4.080;2023-01-23T03:11:34;43.97;;;22.63;;
20283;SDS011;10301;50.832;4.080;2023-01-23T03:14:02;49.60;;;23.67;;
20283;SDS011;10301;50.832;4.080;2023-01-23T03:16:28;45.80;;;22.00;;
20283;SDS011;10301;50.832;4.080;2023-01-23T03:18:54;45.53;;;22.50;;
20283;SDS011;10301;50.832;4.080;2023-01-23T03:21:21;45.53;;;22.33;;
20283;SDS011;10301;50.832;4.080;2023-01-23T03:23:47;46.80;;;22.77;;
20283;SDS011;10301;50.832;4.080;2023-01-23T03:26:12;43.57;;;20.27;;
20283;SDS011;10301;50.832;4.080;2023-01-23T03:28:39;46.17;;;22.70;;
20283;SDS011;10301;50.832;4.080;2023-01-23T03:31:23;50.10;;;24.57;;
20283;SDS011;10301;50.832;4.080;2023-01-23T03:33:48;53.73;;;25.07;;
20283;SDS011;10301;50.832;4.080;2023-01-23T03:36:14;52.33;;;24.00;;
20283;SDS011;10301;50.832;4.080;2023-01-23T03:38:40;49.93;;;24.17;;
20283;SDS011;10301;50.832;4.080;2023-01-23T03:41:26;50.40;;;23.47;;
20283;SDS011;10301;50.832;4.080;2023-01-23T03:43:52;54.87;;;24.37;;
20283;SDS011;10301;50.832;4.080;2023-01-23T03:46:18;50.27;;;23.77;;
20283;SDS011;10301;50.832;4.080;2023-01-23T03:48:43;49.20;;;23.23;;
20283;SDS011;10301;50.832;4.080;2023-01-23T03:51:09;53.33;;;25.03;;
20283;SDS011;10301;50.832;4.080;2023-01-23T03:53:35;52.77;;;24.17;;
20283;SDS011;10301;50.832;4.080;2023-01-23T03:56:00;52.87;;;23.97;;
20283;SDS011;10301;50.832;4.080;2023-01-23T03:58:26;52.37;;;23.77;;
20283;SDS011;10301;50.832;4.080;2023-01-23T04:00:52;54.53;;;24.37;;
20283;SDS011;10301;50.832;4.080;2023-01-23T04:03:18;58.53;;;25.87;;
20283;SDS011;10301;50.832;4.080;2023-01-23T04:05:43;53.13;;;23.37;;
20283;SDS011;10301;50.832;4.080;2023-01-23T04:08:09;54.77;;;25.03;;
20283;SDS011;10301;50.832;4.080;2023-01-23T04:10:34;54.43;;;24.93;;
20283;SDS011;10301;50.832;4.080;2023-01-23T04:13:00;53.60;;;24.10;;
20283;SDS011;10301;50.832;4.080;2023-01-23T04:15:26;55.77;;;24.70;;
20283;SDS011;10301;50.832;4.080;2023-01-23T04:17:52;54.63;;;24.53;;
20283;SDS011;10301;50.832;4.080;2023-01-23T04:20:17;57.27;;;24.33;;
20283;SDS011;10301;50.832;4.080;2023-01-23T04:22:43;57.47;;;25.77;;
20283;SDS011;10301;50.832;4.080;2023-01-23T04:25:09;61.93;;;25.90;;
20283;SDS011;10301;50.832;4.080;2023-01-23T04:27:35;57.43;;;25.63;;
20283;SDS011;10301;50.832;4.080;2023-01-23T04:30:00;64.57;;;27.43;;
20283;SDS011;10301;50.832;4.080;2023-01-23T04:32:27;56.20;;;25.83;;
20283;SDS011;10301;50.832;4.080;2023-01-23T04:34:53;61.47;;;27.17;;
20283;SDS011;10301;50.832;4.080;2023-01-23T04:37:18;61.90;;;26.63;;
20283;SDS011;10301;50.832;4.080;2023-01-23T04:39:44;64.13;;;25.90;;
20283;SDS011;10301;50.832;4.080;2023-01-23T04:42:10;60.70;;;26.13;;
20283;SDS011;10301;50.832;4.080;2023-01-23T04:44:35;58.80;;;25.43;;
20283;SDS011;10301;50.832;4.080;2023-01-23T04:47:04;68.37;;;27.43;;
20283;SDS011;10301;50.832;4.080;2023-01-23T04:49:29;67.00;;;28.27;;
20283;SDS011;10301;50.832;4.080;2023-01-23T04:51:55;58.20;;;27.73;;
20283;SDS011;10301;50.832;4.080;2023-01-23T04:54:21;56.07;;;24.80;;
20283;SDS011;10301;50.832;4.080;2023-01-23T04:56:46;57.93;;;27.23;;
20283;SDS011;10301;50.832;4.080;2023-01-23T04:59:13;55.03;;;25.73;;
20283;SDS011;10301;50.832;4.080;2023-01-23T05:01:40;64.33;;;27.17;;
20283;SDS011;10301;50.832;4.080;2023-01-23T05:04:06;55.87;;;25.97;;
20283;SDS011;10301;50.832;4.080;2023-01-23T05:06:32;57.00;;;24.40;;
20283;SDS011;10301;50.832;4.080;2023-01-23T05:08:58;58.47;;;26.57;;
20283;SDS011;10301;50.832;4.080;2023-01-23T05:11:24;57.60;;;26.67;;
20283;SDS011;10301;50.832;4.080;2023-01-23T05:13:49;60.33;;;27.27;;
20283;SDS011;10301;50.832;4.080;2023-01-23T05:16:15;61.20;;;26.07;;
20283;SDS011;10301;50.832;4.080;2023-01-23T05:18:41;58.37;;;25.93;;
20283;SDS011;10301;50.832;4.080;2023-01-23T05:21:07;66.60;;;28.07;;
20283;SDS011;10301;50.832;4.080;2023-01-23T05:23:32;63.33;;;25.83;;
20283;SDS011;10301;50.832;4.080;2023-01-23T05:25:58;67.37;;;29.60;;
20283;SDS011;10301;50.832;4.080;2023-01-23T05:28:24;63.70;;;27.93;;
20283;SDS011;10301;50.832;4.080;2023-01-23T05:30:49;60.33;;;26.27;;
20283;SDS011;10301;50.832;4.080;2023-01-23T05:33:15;61.43;;;25.57;;
20283;SDS011;10301;50.832;4.080;2023-01-23T05:35:41;62.97;;;27.23;;
20283;SDS011;10301;50.832;4.080;2023-01-23T05:38:07;66.53;;;27.23;;
20283;SDS011;10301;50.832;4.080;2023-01-23T05:40:33;65.73;;;29.53;;
20283;SDS011;10301;50.832;4.080;2023-01-23T05:42:59;58.57;;;26.43;;
20283;SDS011;10301;50.832;4.080;2023-01-23T05:45:24;61.83;;;27.30;;
20283;SDS011;10301;50.832;4.080;2023-01-23T05:47:50;63.70;;;27.77;;
20283;SDS011;10301;50.832;4.080;2023-01-23T05:50:17;59.57;;;26.17;;
20283;SDS011;10301;50.832;4.080;2023-01-23T05:52:44;61.33;;;27.80;;
20283;SDS011;10301;50.832;4.080;2023-01-23T05:55:10;60.87;;;26.73;;
20283;SDS011;10301;50.832;4.080;2023-01-23T05:57:36;62.63;;;27.83;;
20283;SDS011;10301;50.832;4.080;2023-01-23T06:00:03;64.50;;;28.43;;
20283;SDS011;10301;50.832;4.080;2023-01-23T06:02:30;65.27;;;25.27;;
20283;SDS011;10301;50.832;4.080;2023-01-23T06:04:57;63.87;;;28.63;;
20283;SDS011;10301;50.832;4.080;2023-01-23T06:07:23;63.20;;;27.07;;
20283;SDS011;10301;50.832;4.080;2023-01-23T06:09:48;63.73;;;27.17;;
20283;SDS011;10301;50.832;4.080;2023-01-23T06:12:14;63.03;;;27.67;;
20283;SDS011;10301;50.832;4.080;2023-01-23T06:14:39;65.93;;;26.83;;
20283;SDS011;10301;50.832;4.080;2023-01-23T06:17:06;66.90;;;27.23;;
20283;SDS011;10301;50.832;4.080;2023-01-23T06:19:32;67.50;;;29.23;;
20283;SDS011;10301;50.832;4.080;2023-01-23T06:21:57;72.60;;;29.23;;
20283;SDS011;10301;50.832;4.080;2023-01-23T06:24:23;70.50;;;29.03;;
20283;SDS011;10301;50.832;4.080;2023-01-23T06:26:49;74.90;;;31.30;;
20283;SDS011;10301;50.832;4.080;2023-01-23T06:29:15;69.60;;;28.67;;
20283;SDS011;10301;50.832;4.080;2023-01-23T06:31:40;70.97;;;28.77;;
20283;SDS011;10301;50.832;4.080;2023-01-23T06:34:06;71.27;;;29.03;;
20283;SDS011;10301;50.832;4.080;2023-01-23T06:36:32;79.43;;;29.37;;
20283;SDS011;10301;50.832;4.080;2023-01-23T06:38:58;69.60;;;29.27;;
20283;SDS011;10301;50.832;4.080;2023-01-23T06:41:24;76.43;;;30.37;;
20283;SDS011;10301;50.832;4.080;2023-01-23T06:43:50;68.60;;;28.80;;
20283;SDS011;10301;50.832;4.080;2023-01-23T06:46:16;69.17;;;28.30;;
20283;SDS011;10301;50.832;4.080;2023-01-23T06:48:41;69.10;;;29.73;;
20283;SDS011;10301;50.832;4.080;2023-01-23T06:51:07;68.40;;;27.77;;
20283;SDS011;10301;50.832;4.080;2023-01-23T06:53:33;73.43;;;30.40;;
20283;SDS011;10301;50.832;4.080;2023-01-23T06:56:02;66.80;;;29.00;;
20283;SDS011;10301;50.832;4.080;2023-01-23T06:58:29;75.90;;;29.00;;
20283;SDS011;10301;50.832;4.080;2023-01-23T07:00:55;69.37;;;27.63;;
20283;SDS011;10301;50.832;4.080;2023-01-23T07:03:21;72.60;;;28.03;;
20283;SDS011;10301;50.832;4.080;2023-01-23T07:05:47;73.27;;;27.47;;
20283;SDS011;10301;50.832;4.080;2023-01-23T07:08:14;70.40;;;27.33;;
20283;SDS011;10301;50.832;4.080;2023-01-23T07:10:40;65.77;;;26.77;;
20283;SDS011;10301;50.832;4.080;2023-01-23T07:13:06;69.43;;;29.03;;
20283;SDS011;10301;50.832;4.080;2023-01-23T07:15:33;69.50;;;28.80;;
20283;SDS011;10301;50.832;4.080;2023-01-23T07:18:00;71.23;;;28.90;;
20283;SDS011;10301;50.832;4.080;2023-01-23T07:20:26;72.33;;;29.10;;
20283;SDS011;10301;50.832;4.080;2023-01-23T07:22:53;75.03;;;28.63;;
20283;SDS011;10301;50.832;4.080;2023-01-23T07:25:19;76.53;;;29.97;;
20283;SDS011;10301;50.832;4.080;2023-01-23T07:27:45;77.70;;;31.00;;
20283;SDS011;10301;50.832;4.080;2023-01-23T07:30:11;77.30;;;30.33;;
20283;SDS011;10301;50.832;4.080;2023-01-23T07:32:36;75.20;;;27.00;;
20283;SDS011;10301;50.832;4.080;2023-01-23T07:35:02;80.90;;;28.73;;
20283;SDS011;10301;50.832;4.080;2023-01-23T07:37:28;69.70;;;29.90;;
20283;SDS011;10301;50.832;4.080;2023-01-23T07:39:54;73.93;;;31.60;;
20283;SDS011;10301;50.832;4.080;2023-01-23T07:42:19;71.83;;;30.67;;
20283;SDS011;10301;50.832;4.080;2023-01-23T07:44:45;68.50;;;29.90;;
20283;SDS011;10301;50.832;4.080;2023-01-23T07:47:11;74.47;;;29.23;;
20283;SDS011;10301;50.832;4.080;2023-01-23T07:49:36;75.17;;;28.20;;
20283;SDS011;10301;50.832;4.080;2023-01-23T07:52:02;73.20;;;29.77;;
20283;SDS011;10301;50.832;4.080;2023-01-23T07:54:28;75.30;;;30.43;;
20283;SDS011;10301;50.832;4.080;2023-01-23T07:56:54;68.53;;;28.63;;
20283;SDS011;10301;50.832;4.080;2023-01-23T07:59:20;75.83;;;29.97;;
20283;SDS011;10301;50.832;4.080;2023-01-23T08:01:46;71.93;;;29.97;;
20283;SDS011;10301;50.832;4.080;2023-01-23T08:04:13;77.20;;;29.47;;
20283;SDS011;10301;50.832;4.080;2023-01-23T08:06:39;75.37;;;29.97;;
20283;SDS011;10301;50.832;4.080;2023-01-23T08:09:04;62.90;;;26.93;;
20283;SDS011;10301;50.832;4.080;2023-01-23T08:11:30;73.30;;;28.50;;
20283;SDS011;10301;50.832;4.080;2023-01-23T08:13:56;69.00;;;29.17;;
20283;SDS011;10301;50.832;4.080;2023-01-23T08:16:22;74.63;;;29.57;;
20283;SDS011;10301;50.832;4.080;2023-01-23T08:18:47;69.80;;;28.00;;
20283;SDS011;10301;50.832;4.080;2023-01-23T08:21:13;69.17;;;27.53;;
20283;SDS011;10301;50.832;4.080;2023-01-23T08:23:39;71.77;;;28.77;;
20283;SDS011;10301;50.832;4.080;2023-01-23T08:26:05;67.77;;;28.60;;
20283;SDS011;10301;50.832;4.080;2023-01-23T08:28:32;66.07;;;27.63;;
20283;SDS011;10301;50.832;4.080;2023-01-23T08:30:59;64.27;;;27.03;;
20283;SDS011;10301;50.832;4.080;2023-01-23T08:33:29;75.10;;;29.50;;
20283;SDS011;10301;50.832;4.080;2023-01-23T08:35:56;73.23;;;30.67;;
20283;SDS011;10301;50.832;4.080;2023-01-23T08:38:23;70.50;;;28.60;;
20283;SDS011;10301;50.832;4.080;2023-01-23T08:40:49;69.47;;;28.80;;
20283;SDS011;10301;50.832;4.080;2023-01-23T08:43:17;69.53;;;27.97;;
20283;SDS011;10301;50.832;4.080;2023-01-23T08:45:53;74.93;;;29.13;;
20283;SDS011;10301;50.832;4.080;2023-01-23T08:48:21;68.50;;;28.07;;
20283;SDS011;10301;50.832;4.080;2023-01-23T08:50:48;64.27;;;28.90;;
20283;SDS011;10301;50.832;4.080;2023-01-23T08:53:14;64.37;;;27.53;;
20283;SDS011;10301;50.832;4.080;2023-01-23T08:55:40;70.03;;;28.10;;
20283;SDS011;10301;50.832;4.080;2023-01-23T08:58:08;63.87;;;27.80;;
20283;SDS011;10301;50.832;4.080;2023-01-23T09:00:37;67.17;;;26.80;;
20283;SDS011;10301;50.832;4.080;2023-01-23T09:03:03;66.10;;;29.10;;
20283;SDS011;10301;50.832;4.080;2023-01-23T09:05:29;65.27;;;28.27;;
20283;SDS011;10301;50.832;4.080;2023-01-23T09:07:55;67.33;;;28.17;;
20283;SDS011;10301;50.832;4.080;2023-01-23T09:10:22;64.83;;;26.23;;
20283;SDS011;10301;50.832;4.080;2023-01-23T09:12:54;64.00;;;27.23;;
20283;SDS011;10301;50.832;4.080;2023-01-23T09:15:19;65.33;;;27.90;;
20283;SDS011;10301;50.832;4.080;2023-01-23T09:17:46;58.27;;;27.10;;
20283;SDS011;10301;50.832;4.080;2023-01-23T09:20:12;64.07;;;27.00;;
20283;SDS011;10301;50.832;4.080;2023-01-23T09:22:39;66.80;;;27.53;;
20283;SDS011;10301;50.832;4.080;2023-01-23T09:25:05;62.37;;;27.37;;
20283;SDS011;10301;50.832;4.080;2023-01-23T09:27:31;66.00;;;26.20;;
20283;SDS011;10301;50.832;4.080;2023-01-23T09:29:57;64.77;;;28.10;;
20283;SDS011;10301;50.832;4.080;2023-01-23T09:32:22;64.97;;;27.83;;
20283;SDS011;10301;50.832;4.080;2023-01-23T09:34:48;60.97;;;27.00;;
20283;SDS011;10301;50.832;4.080;2023-01-23T09:37:14;64.17;;;26.97;;
20283;SDS011;10301;50.832;4.080;2023-01-23T09:39:41;62.67;;;25.60;;
20283;SDS011;10301;50.832;4.080;2023-01-23T09:42:14;58.00;;;26.40;;
20283;SDS011;10301;50.832;4.080;2023-01-23T09:44:54;59.47;;;26.60;;
20283;SDS011;10301;50.832;4.080;2023-01-23T09:47:25;57.20;;;25.83;;
20283;SDS011;10301;50.832;4.080;2023-01-23T09:50:00;63.70;;;28.27;;
20283;SDS011;10301;50.832;4.080;2023-01-23T09:52:42;59.90;;;26.37;;
20283;SDS011;10301;50.832;4.080;2023-01-23T09:57:49;55.27;;;25.70;;
20283;SDS011;10301;50.832;4.080;2023-01-23T10:02:54;51.17;;;24.67;;
20283;SDS011;10301;50.832;4.080;2023-01-23T10:05:31;58.70;;;25.40;;
20283;SDS011;10301;50.832;4.080;2023-01-23T10:21:38;56.03;;;28.17;;
20283;SDS011;10301;50.832;4.080;2023-01-23T10:27:04;50.10;;;24.17;;
20283;SDS011;10301;50.832;4.080;2023-01-23T10:30:18;49.20;;;23.03;;
20283;SDS011;10301;50.832;4.080;2023-01-23T10:32:51;52.27;;;24.30;;
20283;SDS011;10301;50.832;4.080;2023-01-23T10:35:22;58.57;;;27.20;;
20283;SDS011;10301;50.832;4.080;2023-01-23T10:40:42;55.47;;;24.63;;
20283;SDS011;10301;50.832;4.080;2023-01-23T10:43:28;50.17;;;23.63;;
20283;SDS011;10301;50.832;4.080;2023-01-23T10:45:54;46.83;;;22.60;;
20283;SDS011;10301;50.832;4.080;2023-01-23T10:48:27;46.13;;;22.27;;
20283;SDS011;10301;50.832;4.080;2023-01-23T10:51:02;48.30;;;22.27;;
20283;SDS011;10301;50.832;4.080;2023-01-23T10:53:28;48.47;;;23.80;;
20283;SDS011;10301;50.832;4.080;2023-01-23T10:55:54;40.27;;;20.87;;
20283;SDS011;10301;50.832;4.080;2023-01-23T10:58:36;42.37;;;21.97;;
20283;SDS011;10301;50.832;4.080;2023-01-23T11:01:03;46.33;;;21.87;;
20283;SDS011;10301;50.832;4.080;2023-01-23T11:03:32;47.30;;;22.67;;
20283;SDS011;10301;50.832;4.080;2023-01-23T11:06:01;46.50;;;22.53;;
20283;SDS011;10301;50.832;4.080;2023-01-23T11:08:41;48.20;;;23.17;;
20283;SDS011;10301;50.832;4.080;2023-01-23T11:11:27;47.80;;;23.50;;
20283;SDS011;10301;50.832;4.080;2023-01-23T11:16:41;50.67;;;24.57;;
20283;SDS011;10301;50.832;4.080;2023-01-23T11:24:21;48.07;;;23.60;;
20283;SDS011;10301;50.832;4.080;2023-01-23T11:32:34;49.87;;;25.17;;
20283;SDS011;10301;50.832;4.080;2023-01-23T11:35:15;44.03;;;23.10;;
20283;SDS011;10301;50.832;4.080;2023-01-23T11:37:46;46.40;;;22.97;;
20283;SDS011;10301;50.832;4.080;2023-01-23T11:40:12;52.30;;;24.97;;
20283;SDS011;10301;50.832;4.080;2023-01-23T11:42:42;49.27;;;24.30;;
20283;SDS011;10301;50.832;4.080;2023-01-23T11:50:35;44.33;;;23.30;;
20283;SDS011;10301;50.832;4.080;2023-01-23T11:53:14;49.13;;;23.93;;
20283;SDS011;10301;50.832;4.080;2023-01-23T12:02:41;50.43;;;24.80;;
20283;SDS011;10301;50.832;4.080;2023-01-23T12:09:42;48.87;;;23.80;;
20283;SDS011;10301;50.832;4.080;2023-01-23T12:15:02;46.00;;;23.13;;
20283;SDS011;10301;50.832;4.080;2023-01-23T12:17:41;53.77;;;25.27;;
20283;SDS011;10301;50.832;4.080;2023-01-23T12:25:31;53.73;;;23.27;;
20283;SDS011;10301;50.832;4.080;2023-01-23T12:28:00;49.37;;;22.37;;
20283;SDS011;10301;50.832;4.080;2023-01-23T12:39:07;56.13;;;28.17;;
20283;SDS011;10301;50.832;4.080;2023-01-23T12:41:51;49.70;;;24.90;;
20283;SDS011;10301;50.832;4.080;2023-01-23T12:44:37;51.37;;;23.87;;
20283;SDS011;10301;50.832;4.080;2023-01-23T12:47:36;53.93;;;26.13;;
20283;SDS011;10301;50.832;4.080;2023-01-23T12:50:28;49.63;;;23.57;;
20283;SDS011;10301;50.832;4.080;2023-01-23T12:53:00;50.43;;;24.03;;
20283;SDS011;10301;50.832;4.080;2023-01-23T12:55:38;49.17;;;24.37;;
20283;SDS011;10301;50.832;4.080;2023-01-23T12:58:05;49.63;;;23.87;;
20283;SDS011;10301;50.832;4.080;2023-01-23T13:11:01;51.03;;;24.63;;
20283;SDS011;10301;50.832;4.080;2023-01-23T13:17:26;50.27;;;25.10;;
20283;SDS011;10301;50.832;4.080;2023-01-23T13:19:53;46.90;;;24.77;;
20283;SDS011;10301;50.832;4.080;2023-01-23T13:28:41;51.60;;;25.13;;
20283;SDS011;10301;50.832;4.080;2023-01-23T13:31:22;48.93;;;24.27;;
20283;SDS011;10301;50.832;4.080;2023-01-23T13:33:49;50.83;;;25.67;;
20283;SDS011;10301;50.832;4.080;2023-01-23T13:36:36;51.30;;;25.20;;
20283;SDS011;10301;50.832;4.080;2023-01-23T13:39:23;50.10;;;24.47;;
20283;SDS011;10301;50.832;4.080;2023-01-23T13:42:32;48.83;;;23.80;;
20283;SDS011;10301;50.832;4.080;2023-01-23T13:50:40;50.80;;;24.70;;
20283;SDS011;10301;50.832;4.080;2023-01-23T13:53:15;52.00;;;25.97;;
20283;SDS011;10301;50.832;4.080;2023-01-23T13:56:03;55.87;;;27.40;;
20283;SDS011;10301;50.832;4.080;2023-01-23T13:58:47;52.07;;;26.70;;
20283;SDS011;10301;50.832;4.080;2023-01-23T14:01:18;49.40;;;24.90;;
20283;SDS011;10301;50.832;4.080;2023-01-23T14:04:10;45.80;;;24.47;;
20283;SDS011;10301;50.832;4.080;2023-01-23T14:06:59;50.37;;;26.57;;
20283;SDS011;10301;50.832;4.080;2023-01-23T14:11:55;49.03;;;25.17;;
20283;SDS011;10301;50.832;4.080;2023-01-23T14:14:21;48.97;;;24.27;;
20283;SDS011;10301;50.832;4.080;2023-01-23T14:17:05;40.07;;;19.67;;
20283;SDS011;10301;50.832;4.080;2023-01-23T14:19:32;44.60;;;22.50;;
20283;SDS011;10301;50.832;4.080;2023-01-23T14:21:59;43.43;;;20.27;;
20283;SDS011;10301;50.832;4.080;2023-01-23T14:24:46;51.77;;;23.97;;
20283;SDS011;10301;50.832;4.080;2023-01-23T14:27:18;51.40;;;25.80;;
20283;SDS011;10301;50.832;4.080;2023-01-23T14:30:02;51.33;;;24.73;;
20283;SDS011;10301;50.832;4.080;2023-01-23T14:32:29;52.30;;;25.63;;
20283;SDS011;10301;50.832;4.080;2023-01-23T14:34:56;54.07;;;23.60;;
20283;SDS011;10301;50.832;4.080;2023-01-23T14:37:22;49.47;;;24.77;;
20283;SDS011;10301;50.832;4.080;2023-01-23T14:39:48;51.40;;;24.17;;
20283;SDS011;10301;50.832;4.080;2023-01-23T14:42:21;51.37;;;23.70;;
20283;SDS011;10301;50.832;4.080;2023-01-23T14:44:52;52.87;;;27.30;;
20283;SDS011;10301;50.832;4.080;2023-01-23T14:47:36;55.10;;;26.83;;
20283;SDS011;10301;50.832;4.080;2023-01-23T14:50:08;58.13;;;28.77;;
20283;SDS011;10301;50.832;4.080;2023-01-23T14:52:39;53.73;;;28.10;;
20283;SDS011;10301;50.832;4.080;2023-01-23T14:55:17;58.70;;;26.37;;
20283;SDS011;10301;50.832;4.080;2023-01-23T14:57:49;52.40;;;24.70;;
20283;SDS011;10301;50.832;4.080;2023-01-23T15:00:16;52.90;;;27.50;;
20283;SDS011;10301;50.832;4.080;2023-01-23T15:02:45;55.57;;;28.20;;
20283;SDS011;10301;50.832;4.080;2023-01-23T15:12:56;52.57;;;25.33;;
20283;SDS011;10301;50.832;4.080;2023-01-23T15:15:23;52.23;;;26.37;;
20283;SDS011;10301;50.832;4.080;2023-01-23T15:17:50;49.77;;;25.10;;
20283;SDS011;10301;50.832;4.080;2023-01-23T15:20:26;51.47;;;26.43;;
20283;SDS011;10301;50.832;4.080;2023-01-23T15:22:53;49.30;;;24.50;;
20283;SDS011;10301;50.832;4.080;2023-01-23T15:25:37;50.37;;;25.40;;
20283;SDS011;10301;50.832;4.080;2023-01-23T15:28:25;47.17;;;24.80;;
20283;SDS011;10301;50.832;4.080;2023-01-23T15:30:54;48.40;;;24.27;;
20283;SDS011;10301;50.832;4.080;2023-01-23T15:33:24;48.30;;;24.20;;
20283;SDS011;10301;50.832;4.080;2023-01-23T15:36:07;50.20;;;24.90;;
20283;SDS011;10301;50.832;4.080;2023-01-23T15:38:53;48.57;;;23.13;;
20283;SDS011;10301;50.832;4.080;2023-01-23T15:41:35;48.73;;;24.57;;
20283;SDS011;10301;50.832;4.080;2023-01-23T15:44:12;54.67;;;26.97;;
20283;SDS011;10301;50.832;4.080;2023-01-23T15:46:39;46.93;;;23.50;;
20283;SDS011;10301;50.832;4.080;2023-01-23T15:49:04;48.70;;;24.43;;
20283;SDS011;10301;50.832;4.080;2023-01-23T15:51:30;48.23;;;24.80;;
20283;SDS011;10301;50.832;4.080;2023-01-23T15:53:56;47.57;;;23.97;;
20283;SDS011;10301;50.832;4.080;2023-01-23T15:56:29;43.87;;;22.87;;
20283;SDS011;10301;50.832;4.080;2023-01-23T15:58:57;46.40;;;22.80;;
20283;SDS011;10301;50.832;4.080;2023-01-23T16:01:24;42.67;;;21.93;;
20283;SDS011;10301;50.832;4.080;2023-01-23T16:03:50;48.87;;;23.50;;
20283;SDS011;10301;50.832;4.080;2023-01-23T16:06:17;48.63;;;24.53;;
20283;SDS011;10301;50.832;4.080;2023-01-23T16:08:48;51.90;;;24.97;;
20283;SDS011;10301;50.832;4.080;2023-01-23T16:11:16;49.83;;;23.47;;
20283;SDS011;10301;50.832;4.080;2023-01-23T16:13:43;43.93;;;21.10;;
20283;SDS011;10301;50.832;4.080;2023-01-23T16:16:15;38.03;;;21.37;;
20283;SDS011;10301;50.832;4.080;2023-01-23T16:18:42;41.00;;;20.27;;
20283;SDS011;10301;50.832;4.080;2023-01-23T16:21:17;38.23;;;20.83;;
20283;SDS011;10301;50.832;4.080;2023-01-23T16:23:44;38.03;;;20.13;;
20283;SDS011;10301;50.832;4.080;2023-01-23T16:26:20;35.50;;;19.33;;